Terminal Aerodrome Forecast
Issued by NWS

Home | Current Version | Previous Version | Text Only | Print | Product List | Glossary On
Versions: 1 2 3 4 5 6 7 8 9 10 11 12 13 14
416
FTUS45 KABQ 071126
TAFSAF
TAF
KSAF 071126Z 0712/0812 24006KT P6SM FEW025 SCT035
      TEMPO 0712/0715 BKN035
     FM071700 26011G18KT P6SM FEW035 SCT050
     FM080000 12010KT P6SM SCT250=

USA.gov is the U.S. government's official web portal to all federal, state and local government web resources and services.